createdAt,value
2023-01-28T00:00:22.298Z,89.95
2023-01-28T00:01:22.265Z,90.10
2023-01-28T00:02:22.366Z,90.06
2023-01-28T00:03:22.254Z,90.20
2023-01-28T00:04:22.155Z,90.52
2023-01-28T00:05:22.105Z,90.20
2023-01-28T00:06:22.071Z,90.31
2023-01-28T00:07:22.034Z,90.10
2023-01-28T00:08:22.068Z,89.78
2023-01-28T00:09:21.956Z,90.31
2023-01-28T00:10:21.918Z,90.52
2023-01-28T00:11:21.879Z,90.62
2023-01-28T00:12:21.844Z,90.72
2023-01-28T00:13:21.792Z,90.62
2023-01-28T00:14:21.824Z,90.10
2023-01-28T00:15:21.729Z,90.87
2023-01-28T00:16:21.728Z,90.83
2023-01-28T00:17:21.649Z,91.04
2023-01-28T00:18:21.611Z,91.04
2023-01-28T00:19:21.625Z,91.66
2023-01-28T00:20:21.618Z,91.60
2023-01-28T00:21:21.489Z,91.18
2023-01-28T00:22:21.447Z,91.81
2023-01-28T00:23:21.519Z,91.71
2023-01-28T00:24:21.423Z,92.02
2023-01-28T00:25:21.400Z,91.81
2023-01-28T00:26:21.298Z,91.91
2023-01-28T00:27:21.263Z,91.71
2023-01-28T00:28:21.222Z,92.22
2023-01-28T00:29:21.177Z,92.12
2023-01-28T00:30:21.144Z,92.65
2023-01-28T00:31:21.199Z,92.02
2023-01-28T00:32:21.100Z,92.44
2023-01-28T00:33:21.034Z,92.33
2023-01-28T00:34:20.990Z,92.06
2023-01-28T00:35:20.982Z,91.81
2023-01-28T00:36:21.045Z,92.65
2023-01-28T00:37:20.926Z,92.27
2023-01-28T00:38:20.834Z,91.96
2023-01-28T00:39:20.786Z,92.06
2023-01-28T00:40:20.846Z,92.16
2023-01-28T00:41:20.728Z,92.37
2023-01-28T00:42:20.675Z,91.85
2023-01-28T00:43:20.641Z,91.75
2023-01-28T00:44:20.600Z,91.96
2023-01-28T00:45:20.566Z,92.16
2023-01-28T00:46:20.666Z,92.10
2023-01-28T00:47:20.480Z,92.37
2023-01-28T00:48:20.493Z,92.37
2023-01-28T00:49:20.401Z,92.79
2023-01-28T00:50:20.364Z,92.47
2023-01-28T00:51:20.332Z,92.41
2023-01-28T00:52:20.339Z,92.37
2023-01-28T00:53:20.267Z,92.31
2023-01-28T00:54:20.219Z,92.47
2023-01-28T00:55:20.174Z,92.31
2023-01-28T00:56:20.139Z,92.83
2023-01-28T00:57:20.224Z,93.04
2023-01-28T00:58:20.066Z,93.15
2023-01-28T00:59:20.017Z,93.21
2023-01-28T01:00:19.978Z,92.58
2023-01-28T01:01:19.979Z,92.37
2023-01-28T01:02:19.954Z,92.58
2023-01-28T01:03:19.935Z,92.90
2023-01-28T01:04:19.821Z,92.79
2023-01-28T01:05:19.779Z,92.16
2023-01-28T01:06:19.742Z,91.85
2023-01-28T01:07:19.710Z,92.47
2023-01-28T01:08:19.675Z,92.16
2023-01-28T01:09:19.691Z,91.43
2023-01-28T01:10:19.584Z,92.21
2023-01-28T01:11:19.560Z,91.85
2023-01-28T01:12:19.512Z,92.37
2023-01-28T01:13:19.541Z,92.06
2023-01-28T01:14:19.434Z,92.16
2023-01-28T01:15:19.393Z,92.16
2023-01-28T01:16:19.353Z,91.85
2023-01-28T01:17:19.341Z,92.27
2023-01-28T01:18:19.592Z,91.96
2023-01-28T01:19:19.239Z,92.10
2023-01-28T01:20:19.206Z,92.00
2023-01-28T01:21:19.163Z,92.41
2023-01-28T01:22:19.125Z,92.52
2023-01-28T01:23:19.080Z,92.00
2023-01-28T01:24:19.204Z,92.52
2023-01-28T01:25:19.036Z,92.31
2023-01-28T01:26:19.045Z,92.31
2023-01-28T01:27:18.922Z,93.25
2023-01-28T01:28:18.919Z,92.41
2023-01-28T01:29:18.857Z,91.89
2023-01-28T01:30:18.880Z,92.41
2023-01-28T01:31:18.768Z,92.52
2023-01-28T01:32:18.748Z,92.00
2023-01-28T01:33:18.695Z,91.58
2023-01-28T01:34:18.650Z,92.00
2023-01-28T01:35:18.853Z,91.79
2023-01-28T01:36:18.578Z,91.72
2023-01-28T01:37:18.545Z,92.41
2023-01-28T01:38:18.503Z,91.79
2023-01-28T01:39:18.467Z,92.10
2023-01-28T01:40:18.491Z,91.94
2023-01-28T01:41:18.387Z,92.04
2023-01-28T01:42:18.352Z,91.79
2023-01-28T01:43:18.315Z,91.69
2023-01-28T01:44:18.273Z,92.21
2023-01-28T01:45:18.330Z,92.21
2023-01-28T01:46:18.284Z,91.83
2023-01-28T01:47:18.149Z,91.62
2023-01-28T01:48:18.121Z,91.72
2023-01-28T01:49:18.082Z,92.35
2023-01-28T01:50:18.036Z,92.35
2023-01-28T01:51:17.996Z,92.46
2023-01-28T01:52:18.011Z,92.14
2023-01-28T01:53:17.932Z,92.10
2023-01-28T01:54:17.905Z,91.94
2023-01-28T01:55:17.841Z,91.69
2023-01-28T01:56:17.807Z,91.79
2023-01-28T01:57:17.834Z,91.79
2023-01-28T01:58:17.735Z,92.21
2023-01-28T01:59:17.684Z,91.89
2023-01-28T02:00:17.638Z,92.21
2023-01-28T02:01:17.613Z,92.21
2023-01-28T02:02:17.645Z,91.89
2023-01-28T02:03:17.679Z,91.58
2023-01-28T02:04:17.488Z,91.79
2023-01-28T02:05:17.813Z,91.58
2023-01-28T02:06:17.415Z,90.95
2023-01-28T02:07:17.431Z,90.75
2023-01-28T02:08:17.382Z,91.58
2023-01-28T02:09:17.351Z,91.69
2023-01-28T02:10:17.263Z,91.37
2023-01-28T02:11:17.212Z,90.75
2023-01-28T02:12:17.180Z,91.58
2023-01-28T02:13:17.153Z,91.06
2023-01-28T02:14:30.725Z,90.33
2023-01-28T02:15:17.417Z,91.16
2023-01-28T02:16:17.057Z,91.58
2023-01-28T02:17:17.007Z,91.06
2023-01-28T02:18:17.052Z,90.75
2023-01-28T02:19:16.899Z,91.58
2023-01-28T02:20:16.858Z,91.58
2023-01-28T02:21:16.830Z,91.27
2023-01-28T02:22:16.802Z,91.79
2023-01-28T02:23:16.752Z,91.47
2023-01-28T02:24:16.822Z,91.69
2023-01-28T02:25:16.997Z,92.10
2023-01-28T02:26:16.634Z,91.47
2023-01-28T02:27:16.589Z,91.69
2023-01-28T02:28:16.562Z,91.79
2023-01-28T02:29:16.600Z,92.21
2023-01-28T02:30:16.481Z,91.47
2023-01-28T02:31:16.737Z,91.16
2023-01-28T02:32:16.392Z,91.27
2023-01-28T02:33:16.357Z,90.95
2023-01-28T02:34:16.354Z,90.85
2023-01-28T02:35:16.676Z,90.91
2023-01-28T02:36:16.234Z,91.47
2023-01-28T02:37:16.210Z,91.79
2023-01-28T02:38:16.177Z,91.43
2023-01-28T02:39:16.164Z,91.58
2023-01-28T02:40:16.141Z,91.54
2023-01-28T02:41:16.046Z,91.96
2023-01-28T02:42:16.009Z,90.91
2023-01-28T02:43:15.980Z,90.81
2023-01-28T02:44:15.979Z,90.91
2023-01-28T02:45:16.421Z,90.70
2023-01-28T02:46:15.883Z,90.28
2023-01-28T02:47:15.823Z,90.81
2023-01-28T02:48:15.776Z,90.85
2023-01-28T02:49:15.749Z,90.95
2023-01-28T02:50:15.749Z,90.85
2023-01-28T02:51:15.669Z,91.33
2023-01-28T02:52:15.627Z,91.43
2023-01-28T02:53:15.623Z,91.43
2023-01-28T02:54:15.549Z,90.91
2023-01-28T02:55:15.855Z,90.18
2023-01-28T02:56:15.526Z,90.60
2023-01-28T02:57:15.429Z,89.97
2023-01-28T02:58:15.406Z,90.60
2023-01-28T02:59:15.354Z,90.97
2023-01-28T03:00:15.320Z,90.28
2023-01-28T03:01:15.458Z,90.28
2023-01-28T03:02:15.272Z,89.97
2023-01-28T03:03:15.195Z,90.81
2023-01-28T03:04:15.153Z,90.91
2023-01-28T03:05:15.386Z,90.81
2023-01-28T03:06:15.123Z,90.43
2023-01-28T03:07:15.056Z,90.70
2023-01-28T03:08:15.002Z,90.75
2023-01-28T03:09:14.966Z,90.64
2023-01-28T03:10:16.125Z,90.39
2023-01-28T03:11:14.886Z,90.70
2023-01-28T03:12:14.914Z,90.60
2023-01-28T03:13:14.823Z,90.70
2023-01-28T03:14:14.780Z,90.81
2023-01-28T03:15:15.115Z,90.91
2023-01-28T03:16:14.815Z,91.02
2023-01-28T03:17:14.668Z,90.70
2023-01-28T03:18:14.669Z,90.60
2023-01-28T03:19:14.575Z,91.12
2023-01-28T03:20:14.610Z,90.91
2023-01-28T03:21:14.500Z,90.14
2023-01-28T03:22:14.458Z,90.70
2023-01-28T03:23:14.421Z,90.14
2023-01-28T03:24:14.507Z,90.45
2023-01-28T03:25:14.735Z,89.51
2023-01-28T03:26:14.310Z,89.41
2023-01-28T03:27:14.267Z,89.72
2023-01-28T03:28:14.289Z,90.03
2023-01-28T03:29:14.189Z,89.51
2023-01-28T03:30:14.149Z,89.66
2023-01-28T03:31:14.114Z,89.34
2023-01-28T03:32:14.134Z,89.14
2023-01-28T03:33:14.040Z,89.87
2023-01-28T03:34:14.052Z,89.56
2023-01-28T03:35:14.225Z,90.18
2023-01-28T03:36:13.928Z,90.18
2023-01-28T03:37:13.876Z,89.66
2023-01-28T03:38:13.839Z,89.45
2023-01-28T03:39:13.804Z,89.45
2023-01-28T03:40:13.835Z,89.24
2023-01-28T03:41:13.719Z,88.93
2023-01-28T03:42:13.725Z,88.51
2023-01-28T03:43:13.652Z,88.82
2023-01-28T03:44:13.612Z,89.03
2023-01-28T03:45:13.852Z,89.10
2023-01-28T03:46:13.655Z,88.72
2023-01-28T03:47:13.500Z,89.34
2023-01-28T03:48:13.452Z,89.45
2023-01-28T03:49:13.426Z,89.56
2023-01-28T03:50:13.384Z,89.51
2023-01-28T03:51:13.396Z,89.87
2023-01-28T03:52:13.373Z,88.93
2023-01-28T03:53:16.364Z,89.24
2023-01-28T03:54:13.219Z,89.34
2023-01-28T03:55:13.681Z,89.14
2023-01-28T03:56:13.159Z,89.03
2023-01-28T03:57:13.116Z,89.24
2023-01-28T03:58:13.124Z,89.34
2023-01-28T03:59:13.044Z,89.24
2023-01-28T04:00:13.059Z,89.56
2023-01-28T04:01:12.952Z,89.56
2023-01-28T04:02:12.924Z,89.34
2023-01-28T04:03:12.902Z,89.14
2023-01-28T04:04:12.935Z,89.14
2023-01-28T04:05:13.361Z,89.56
2023-01-28T04:06:12.975Z,90.28
2023-01-28T04:07:12.718Z,89.81
2023-01-28T04:08:12.677Z,89.18
2023-01-28T04:09:12.644Z,89.66
2023-01-28T04:10:12.611Z,89.66
2023-01-28T04:11:12.664Z,89.24
2023-01-28T04:12:12.525Z,89.34
2023-01-28T04:13:13.554Z,89.66
2023-01-28T04:14:12.450Z,89.39
2023-01-28T04:15:12.780Z,89.49
2023-01-28T04:16:12.444Z,89.81
2023-01-28T04:17:12.422Z,90.22
2023-01-28T04:18:12.305Z,90.43
2023-01-28T04:19:12.251Z,89.76
2023-01-28T04:20:12.219Z,89.97
2023-01-28T04:21:12.238Z,90.33
2023-01-28T04:22:12.190Z,89.56
2023-01-28T04:23:12.097Z,90.18
2023-01-28T04:24:12.107Z,89.87
2023-01-28T04:25:12.531Z,89.81
2023-01-28T04:26:12.048Z,90.08
2023-01-28T04:27:11.946Z,89.87
2023-01-28T04:28:11.913Z,89.76
2023-01-28T04:29:11.872Z,89.97
2023-01-28T04:30:11.827Z,90.50
2023-01-28T04:31:12.550Z,90.08
2023-01-28T04:32:11.870Z,89.87
2023-01-28T04:33:11.719Z,89.34
2023-01-28T04:34:11.669Z,89.56
2023-01-28T04:35:11.653Z,89.14
2023-01-28T04:36:11.599Z,89.76
2023-01-28T04:37:11.615Z,89.18
2023-01-28T04:38:11.521Z,89.59
2023-01-28T04:39:11.479Z,89.49
2023-01-28T04:40:11.440Z,89.28
2023-01-28T04:41:11.410Z,89.49
2023-01-28T04:42:11.428Z,88.65
2023-01-28T04:43:11.324Z,87.82
2023-01-28T04:44:11.288Z,87.19
2023-01-28T04:45:11.287Z,85.90
2023-01-28T04:46:11.202Z,86.43
2023-01-28T04:47:11.222Z,86.74
2023-01-28T04:48:11.134Z,85.90
2023-01-28T04:49:11.090Z,86.84
2023-01-28T04:50:11.057Z,86.74
2023-01-28T04:51:11.020Z,86.53
2023-01-28T04:52:11.041Z,86.74
2023-01-28T04:53:10.929Z,86.69
2023-01-28T04:54:10.900Z,84.30
2023-01-28T04:55:10.861Z,84.34
2023-01-28T04:56:10.822Z,82.94
2023-01-28T04:57:10.778Z,83.67
2023-01-28T04:58:10.814Z,84.30
2023-01-28T04:59:10.703Z,84.30
2023-01-28T05:00:10.665Z,83.88
2023-01-28T05:01:10.672Z,84.19
2023-01-28T05:02:10.668Z,84.40
2023-01-28T05:03:10.554Z,83.15
2023-01-28T05:04:10.580Z,83.25
2023-01-28T05:05:10.476Z,84.09
2023-01-28T05:06:10.446Z,83.47
2023-01-28T05:07:10.400Z,83.53
2023-01-28T05:08:10.351Z,84.19
2023-01-28T05:09:10.389Z,84.16
2023-01-28T05:10:10.272Z,83.32
2023-01-28T05:11:10.241Z,83.57
2023-01-28T05:12:10.206Z,84.30
2023-01-28T05:13:10.165Z,84.67
2023-01-28T05:14:10.131Z,83.98
2023-01-28T05:15:10.141Z,84.36
2023-01-28T05:16:10.051Z,84.57
2023-01-28T05:17:10.055Z,84.05
2023-01-28T05:18:09.975Z,84.16
2023-01-28T05:19:09.928Z,84.26
2023-01-28T05:20:09.886Z,84.05
2023-01-28T05:21:09.909Z,84.36
2023-01-28T05:22:09.818Z,83.84
2023-01-28T05:23:09.774Z,84.05
2023-01-28T05:24:09.768Z,83.74
2023-01-28T05:25:09.708Z,83.11
2023-01-28T05:26:09.653Z,83.11
2023-01-28T05:27:09.674Z,83.74
2023-01-28T05:28:09.578Z,84.36
2023-01-28T05:29:09.565Z,83.01
2023-01-28T05:30:09.534Z,82.90
2023-01-28T05:31:09.462Z,83.01
2023-01-28T05:32:09.513Z,82.90
2023-01-28T05:33:09.456Z,82.59
2023-01-28T05:34:09.348Z,82.59
2023-01-28T05:35:09.320Z,82.48
2023-01-28T05:36:09.282Z,82.70
2023-01-28T05:37:09.236Z,82.59
2023-01-28T05:38:09.212Z,82.87
2023-01-28T05:39:09.225Z,83.63
2023-01-28T05:40:09.128Z,84.22
2023-01-28T05:41:09.081Z,84.33
2023-01-28T05:42:09.064Z,84.74
2023-01-28T05:43:09.014Z,84.22
2023-01-28T05:44:08.973Z,81.76
2023-01-28T05:45:08.984Z,81.41
2023-01-28T05:46:08.886Z,82.80
2023-01-28T05:47:08.861Z,82.87
2023-01-28T05:48:08.819Z,85.41
2023-01-28T05:49:08.776Z,85.78
2023-01-28T05:50:08.740Z,85.99
2023-01-28T05:51:08.765Z,86.10
2023-01-28T05:52:08.658Z,86.30
2023-01-28T05:53:08.627Z,85.89
2023-01-28T05:54:08.582Z,84.12
2023-01-28T05:55:08.585Z,84.33
2023-01-28T05:56:08.560Z,83.28
2023-01-28T05:57:08.543Z,83.49
2023-01-28T05:58:08.440Z,82.45
2023-01-28T05:59:08.392Z,79.77
2023-01-28T06:00:08.365Z,80.40
2023-01-28T06:01:08.318Z,81.62
2023-01-28T06:02:08.314Z,83.32
2023-01-28T06:03:08.343Z,81.93
2023-01-28T06:04:08.199Z,81.23
2023-01-28T06:05:08.233Z,81.09
2023-01-28T06:06:08.131Z,81.65
2023-01-28T06:07:08.093Z,81.51
2023-01-28T06:08:08.048Z,81.86
2023-01-28T06:09:08.066Z,82.14
2023-01-28T06:10:07.991Z,82.17
2023-01-28T06:11:07.944Z,82.28
2023-01-28T06:12:07.898Z,82.28
2023-01-28T06:13:07.859Z,82.59
2023-01-28T06:14:07.820Z,81.34
2023-01-28T06:15:07.845Z,80.51
2023-01-28T06:16:07.785Z,80.61
2023-01-28T06:17:07.733Z,80.09
2023-01-28T06:18:07.675Z,80.16
2023-01-28T06:19:07.626Z,80.57
2023-01-28T06:20:07.596Z,80.36
2023-01-28T06:21:07.611Z,80.99
2023-01-28T06:22:07.519Z,80.47
2023-01-28T06:23:07.489Z,80.26
2023-01-28T06:24:07.468Z,82.14
2023-01-28T06:25:07.402Z,82.62
2023-01-28T06:26:07.364Z,82.97
2023-01-28T06:27:07.375Z,83.04
2023-01-28T06:28:07.282Z,82.45
2023-01-28T06:29:07.246Z,80.57
2023-01-28T06:30:07.211Z,81.93
2023-01-28T06:31:07.200Z,83.07
2023-01-28T06:32:07.182Z,83.91
2023-01-28T06:33:07.157Z,82.34
2023-01-28T06:34:07.094Z,82.97
2023-01-28T06:35:07.014Z,81.93
2023-01-28T06:36:06.992Z,80.36
2023-01-28T06:37:06.939Z,81.09
2023-01-28T06:38:06.905Z,82.97
2023-01-28T06:39:06.919Z,82.87
2023-01-28T06:40:06.819Z,82.97
2023-01-28T06:41:06.794Z,81.72
2023-01-28T06:42:06.761Z,81.51
2023-01-28T06:43:06.713Z,81.30
2023-01-28T06:44:06.690Z,80.88
2023-01-28T06:45:06.807Z,80.88
2023-01-28T06:46:06.664Z,80.68
2023-01-28T06:47:06.564Z,79.43
2023-01-28T06:48:08.783Z,80.26
2023-01-28T06:49:06.482Z,79.53
2023-01-28T06:50:06.449Z,79.53
2023-01-28T06:51:06.482Z,78.34
2023-01-28T06:52:06.373Z,79.28
2023-01-28T06:53:06.337Z,80.02
2023-01-28T06:54:06.296Z,79.80
2023-01-28T06:55:06.250Z,79.70
2023-01-28T06:56:06.278Z,79.39
2023-01-28T06:57:06.180Z,80.43
2023-01-28T06:58:06.138Z,81.26
2023-01-28T06:59:06.104Z,82.31
2023-01-28T07:00:06.058Z,83.25
2023-01-28T07:01:06.040Z,83.04
2023-01-28T07:02:06.085Z,82.41
2023-01-28T07:03:05.993Z,83.35
2023-01-28T07:04:05.925Z,82.51
2023-01-28T07:05:05.869Z,80.22
2023-01-28T07:06:05.842Z,78.56
2023-01-28T07:07:05.852Z,78.56
2023-01-28T07:08:05.811Z,77.72
2023-01-28T07:09:11.463Z,77.72
2023-01-28T07:10:05.702Z,77.83
2023-01-28T07:11:05.640Z,77.93
2023-01-28T07:12:05.631Z,77.93
2023-01-28T07:13:05.632Z,79.08
2023-01-28T07:14:05.521Z,78.45
2023-01-28T07:15:05.490Z,78.14
2023-01-28T07:16:05.446Z,78.45
2023-01-28T07:17:05.468Z,78.97
2023-01-28T07:18:05.406Z,78.34
2023-01-28T07:19:05.398Z,78.45
2023-01-28T07:20:05.308Z,78.87
2023-01-28T07:21:05.263Z,78.66
2023-01-28T07:22:05.216Z,78.56
2023-01-28T07:23:05.243Z,78.45
2023-01-28T07:24:05.159Z,78.56
2023-01-28T07:25:05.184Z,78.45
2023-01-28T07:26:05.097Z,78.45
2023-01-28T07:27:05.055Z,78.45
2023-01-28T07:28:04.991Z,78.87
2023-01-28T07:29:04.955Z,78.83
2023-01-28T07:30:04.947Z,78.10
2023-01-28T07:31:05.013Z,78.00
2023-01-28T07:32:04.931Z,77.69
2023-01-28T07:33:04.800Z,77.89
2023-01-28T07:34:04.777Z,77.37
2023-01-28T07:35:04.727Z,76.54
2023-01-28T07:36:04.704Z,76.96
2023-01-28T07:37:04.710Z,77.17
2023-01-28T07:38:04.621Z,77.48
2023-01-28T07:39:04.655Z,77.58
2023-01-28T07:40:04.529Z,77.27
2023-01-28T07:41:04.494Z,77.69
2023-01-28T07:42:04.461Z,77.79
2023-01-28T07:43:04.417Z,77.55
2023-01-28T07:44:04.380Z,77.65
2023-01-28T07:45:04.402Z,78.49
2023-01-28T07:46:04.309Z,77.65
2023-01-28T07:47:04.296Z,76.72
2023-01-28T07:48:04.230Z,77.55
2023-01-28T07:49:04.185Z,76.72
2023-01-28T07:50:04.649Z,76.51
2023-01-28T07:51:04.115Z,76.61
2023-01-28T07:52:04.079Z,77.34
2023-01-28T07:53:11.604Z,75.88
2023-01-28T07:54:04.002Z,75.88
2023-01-28T07:55:03.968Z,76.20
2023-01-28T07:56:04.001Z,76.16
2023-01-28T07:57:03.908Z,76.40
2023-01-28T07:58:03.844Z,75.88
2023-01-28T07:59:03.812Z,75.78
2023-01-28T08:00:03.786Z,75.81
2023-01-28T08:01:03.788Z,76.09
2023-01-28T08:02:03.813Z,75.67
2023-01-28T08:03:03.669Z,75.67
2023-01-28T08:04:03.709Z,75.98
2023-01-28T08:05:11.043Z,76.61
2023-01-28T08:06:03.546Z,77.03
2023-01-28T08:07:03.511Z,76.51
2023-01-28T08:08:03.545Z,76.40
2023-01-28T08:09:03.445Z,76.51
2023-01-28T08:10:03.416Z,77.23
2023-01-28T08:11:03.353Z,77.44
2023-01-28T08:12:03.331Z,77.65
2023-01-28T08:13:03.283Z,75.88
2023-01-28T08:14:03.295Z,76.30
2023-01-28T08:15:03.231Z,75.95
2023-01-28T08:16:03.305Z,75.43
2023-01-28T08:17:03.136Z,75.32
2023-01-28T08:18:03.102Z,75.85
2023-01-28T08:19:03.057Z,75.64
2023-01-28T08:20:03.103Z,75.85
2023-01-28T08:21:02.980Z,75.95
2023-01-28T08:22:02.951Z,76.57
2023-01-28T08:23:02.896Z,75.95
2023-01-28T08:24:02.934Z,76.12
2023-01-28T08:25:02.843Z,74.67
2023-01-28T08:26:02.858Z,75.43
2023-01-28T08:27:02.754Z,74.70
2023-01-28T08:28:02.716Z,75.32
2023-01-28T08:29:02.677Z,75.12
2023-01-28T08:30:02.638Z,74.18
2023-01-28T08:31:02.717Z,73.94
2023-01-28T08:32:02.632Z,74.25
2023-01-28T08:33:02.533Z,73.83
2023-01-28T08:34:02.564Z,73.83
2023-01-28T08:35:02.452Z,74.22
2023-01-28T08:36:02.415Z,74.15
2023-01-28T08:37:02.424Z,74.22
2023-01-28T08:38:02.334Z,74.04
2023-01-28T08:39:02.296Z,73.80
2023-01-28T08:40:02.316Z,74.22
2023-01-28T08:41:02.238Z,73.60
2023-01-28T08:42:02.188Z,73.63
2023-01-28T08:43:02.147Z,73.42
2023-01-28T08:44:02.127Z,74.15
2023-01-28T08:45:02.077Z,74.04
2023-01-28T08:46:02.144Z,74.22
2023-01-28T08:47:02.008Z,73.91
2023-01-28T08:48:01.971Z,74.15
2023-01-28T08:49:01.922Z,74.46
2023-01-28T08:50:01.891Z,73.18
2023-01-28T08:51:01.918Z,73.70
2023-01-28T08:52:01.811Z,73.32
2023-01-28T08:53:01.777Z,73.91
2023-01-28T08:54:01.740Z,73.73
2023-01-28T08:55:01.700Z,73.63
2023-01-28T08:56:01.661Z,73.52
2023-01-28T08:57:01.693Z,73.73
2023-01-28T08:58:01.583Z,73.63
2023-01-28T08:59:01.556Z,74.01
2023-01-28T09:00:01.524Z,73.49
2023-01-28T09:01:01.473Z,73.32
2023-01-28T09:02:01.445Z,73.91
2023-01-28T09:03:02.697Z,74.11
2023-01-28T09:04:01.405Z,74.22
2023-01-28T09:05:01.350Z,73.56
2023-01-28T09:06:01.285Z,73.66
2023-01-28T09:07:01.247Z,73.77
2023-01-28T09:08:01.206Z,73.35
2023-01-28T09:09:01.266Z,73.77
2023-01-28T09:10:01.141Z,73.18
2023-01-28T09:11:01.112Z,73.97
2023-01-28T09:12:01.116Z,74.11
2023-01-28T09:13:01.029Z,74.11
2023-01-28T09:14:01.062Z,73.87
2023-01-28T09:15:00.960Z,73.87
2023-01-28T09:16:00.970Z,73.35
2023-01-28T09:17:00.885Z,73.35
2023-01-28T09:18:00.890Z,73.94
2023-01-28T09:19:00.796Z,72.80
2023-01-28T09:20:00.842Z,72.28
2023-01-28T09:21:00.745Z,72.17
2023-01-28T09:22:00.747Z,72.07
2023-01-28T09:23:00.659Z,72.17
2023-01-28T09:24:00.641Z,72.52
2023-01-28T09:25:00.593Z,72.11
2023-01-28T09:26:00.601Z,72.21
2023-01-28T09:27:00.518Z,72.73
2023-01-28T09:28:00.496Z,72.31
2023-01-28T09:29:00.442Z,72.90
2023-01-28T09:30:00.414Z,73.11
2023-01-28T09:31:00.479Z,72.59
2023-01-28T09:32:00.379Z,72.14
2023-01-28T09:33:00.282Z,72.17
2023-01-28T09:34:00.262Z,72.28
2023-01-28T09:35:00.207Z,72.28
2023-01-28T09:36:00.171Z,72.04
2023-01-28T09:37:00.149Z,72.56
2023-01-28T09:38:00.221Z,72.32
2023-01-28T09:39:00.094Z,71.59
2023-01-28T09:40:00.036Z,70.97
2023-01-28T09:40:59.988Z,71.18
2023-01-28T09:41:59.951Z,70.97
2023-01-28T09:42:59.916Z,70.90
2023-01-28T09:43:59.939Z,71.11
2023-01-28T09:44:59.853Z,71.11
2023-01-28T09:45:59.818Z,71.21
2023-01-28T09:46:59.878Z,71.21
2023-01-28T09:47:59.754Z,71.11
2023-01-28T09:48:59.700Z,71.66
2023-01-28T09:49:59.707Z,72.04
2023-01-28T09:50:59.619Z,72.07
2023-01-28T09:51:59.589Z,71.86
2023-01-28T09:52:59.550Z,72.17
2023-01-28T09:53:59.512Z,72.59
2023-01-28T09:54:59.479Z,72.14
2023-01-28T09:55:59.500Z,72.25
2023-01-28T09:56:59.489Z,71.91
2023-01-28T09:57:59.364Z,72.11
2023-01-28T09:58:59.324Z,71.49
2023-01-28T09:59:59.320Z,71.08
2023-01-28T10:00:59.363Z,70.83
2023-01-28T10:01:59.285Z,70.83
2023-01-28T10:02:59.185Z,71.14
2023-01-28T10:04:00.157Z,70.83
2023-01-28T10:04:59.105Z,70.52
2023-01-28T10:05:59.071Z,70.18
2023-01-28T10:06:59.035Z,69.97
2023-01-28T10:07:59.057Z,69.87
2023-01-28T10:08:59.035Z,69.87
2023-01-28T10:09:58.929Z,70.15
2023-01-28T10:10:58.888Z,70.36
2023-01-28T10:11:58.899Z,70.39
2023-01-28T10:12:58.822Z,70.25
2023-01-28T10:13:58.779Z,69.11
2023-01-28T10:14:58.748Z,68.46
2023-01-28T10:15:58.708Z,68.25
2023-01-28T10:16:58.736Z,68.38
2023-01-28T10:18:14.673Z,68.49
2023-01-28T10:18:58.615Z,68.38
2023-01-28T10:19:58.568Z,68.18
2023-01-28T10:20:58.526Z,68.80
2023-01-28T10:21:58.494Z,68.49
2023-01-28T10:22:58.499Z,68.38
2023-01-28T10:23:58.691Z,68.15
2023-01-28T10:24:58.393Z,68.66
2023-01-28T10:25:59.164Z,69.08
2023-01-28T10:26:58.348Z,68.46
2023-01-28T10:27:58.272Z,68.25
2023-01-28T10:28:58.277Z,69.08
2023-01-28T10:29:58.190Z,68.35
2023-01-28T10:30:58.185Z,67.80
2023-01-28T10:31:58.199Z,67.94
2023-01-28T10:32:58.084Z,67.80
2023-01-28T10:33:58.051Z,67.49
2023-01-28T10:34:58.064Z,67.21
2023-01-28T10:35:57.983Z,68.15
2023-01-28T10:36:57.946Z,67.86
2023-01-28T10:37:57.966Z,68.52
2023-01-28T10:38:57.866Z,68.41
2023-01-28T10:39:57.839Z,69.04
2023-01-28T10:40:57.882Z,69.66
2023-01-28T10:41:58.856Z,69.53
2023-01-28T10:42:57.728Z,68.80
2023-01-28T10:43:57.704Z,69.04
2023-01-28T10:44:57.651Z,68.73
2023-01-28T10:45:57.683Z,69.07
2023-01-28T10:46:57.658Z,69.79
2023-01-28T10:47:57.550Z,69.90
2023-01-28T10:48:57.512Z,70.21
2023-01-28T10:49:57.478Z,69.90
2023-01-28T10:50:57.436Z,69.79
2023-01-28T10:51:57.399Z,69.90
2023-01-28T10:53:02.012Z,69.90
2023-01-28T10:53:57.333Z,69.14
2023-01-28T10:54:57.294Z,69.45
2023-01-28T10:55:57.265Z,69.35
2023-01-28T10:56:57.239Z,69.42
2023-01-28T10:57:57.259Z,68.83
2023-01-28T10:58:57.151Z,68.65
2023-01-28T10:59:57.128Z,69.38
2023-01-28T11:00:57.107Z,69.38
2023-01-28T11:01:57.187Z,69.69
2023-01-28T11:02:57.066Z,69.35
2023-01-28T11:03:56.981Z,68.83
2023-01-28T11:04:57.001Z,68.93
2023-01-28T11:05:56.900Z,69.04
2023-01-28T11:06:56.853Z,69.53
2023-01-28T11:07:56.882Z,68.80
2023-01-28T11:08:56.813Z,69.32
2023-01-28T11:09:56.745Z,68.73
2023-01-28T11:10:56.727Z,68.83
2023-01-28T11:11:56.682Z,68.70
2023-01-28T11:12:56.645Z,69.11
2023-01-28T11:13:56.680Z,68.18
2023-01-28T11:14:56.571Z,68.41
2023-01-28T11:15:57.515Z,68.41
2023-01-28T11:16:56.491Z,68.70
2023-01-28T11:17:56.546Z,69.11
2023-01-28T11:18:56.428Z,69.11
2023-01-28T11:19:56.452Z,69.42
2023-01-28T11:20:56.364Z,69.42
2023-01-28T11:21:57.021Z,69.42
2023-01-28T11:22:56.274Z,69.94
2023-01-28T11:23:59.072Z,69.53
2023-01-28T11:24:56.211Z,69.01
2023-01-28T11:25:56.309Z,69.11
2023-01-28T11:26:57.137Z,69.11
2023-01-28T11:27:56.123Z,69.14
2023-01-28T11:28:56.067Z,69.56
2023-01-28T11:29:56.063Z,69.45
2023-01-28T11:30:56.058Z,69.73
2023-01-28T11:31:56.089Z,69.63
2023-01-28T11:32:55.936Z,69.84
2023-01-28T11:33:55.877Z,69.84
2023-01-28T11:34:55.865Z,69.42
2023-01-28T11:35:55.811Z,69.32
2023-01-28T11:36:55.794Z,69.21
2023-01-28T11:37:55.915Z,69.01
2023-01-28T11:38:55.783Z,69.45
2023-01-28T11:39:56.526Z,69.53
2023-01-28T11:40:55.645Z,69.63
2023-01-28T11:41:55.637Z,69.11
2023-01-28T11:42:55.558Z,69.63
2023-01-28T11:43:55.703Z,70.15
2023-01-28T11:44:55.490Z,70.01
2023-01-28T11:45:55.501Z,69.63
2023-01-28T11:46:56.146Z,69.63
2023-01-28T11:47:57.523Z,69.73
2023-01-28T11:48:55.359Z,69.90
2023-01-28T11:49:55.375Z,69.94
2023-01-28T11:50:55.339Z,69.11
2023-01-28T11:51:55.316Z,69.42
2023-01-28T11:53:06.047Z,69.42
2023-01-28T11:53:55.166Z,69.60
2023-01-28T11:54:55.190Z,69.84
2023-01-28T11:55:55.176Z,70.15
2023-01-28T11:56:56.027Z,70.15
2023-01-28T11:57:55.079Z,70.21
2023-01-28T11:58:55.003Z,69.94
2023-01-28T11:59:54.950Z,70.15
2023-01-28T12:00:54.924Z,69.73
2023-01-28T12:01:54.922Z,70.07
2023-01-28T12:02:55.081Z,69.76
2023-01-28T12:03:54.893Z,70.56
2023-01-28T12:04:54.800Z,70.80
2023-01-28T12:05:54.739Z,70.49
2023-01-28T12:06:54.729Z,70.49
2023-01-28T12:07:54.732Z,70.18
2023-01-28T12:08:54.623Z,70.18
2023-01-28T12:09:54.594Z,70.80
2023-01-28T12:10:54.555Z,70.28
2023-01-28T12:11:57.028Z,70.31
2023-01-28T12:12:54.474Z,70.52
2023-01-28T12:13:54.684Z,70.56
2023-01-28T12:14:55.032Z,70.76
2023-01-28T12:15:54.416Z,71.21
2023-01-28T12:16:54.498Z,71.42
2023-01-28T12:17:55.040Z,72.04
2023-01-28T12:18:54.253Z,72.69
2023-01-28T12:19:54.346Z,72.80
2023-01-28T12:20:54.199Z,72.59
2023-01-28T12:21:54.186Z,72.14
2023-01-28T12:22:54.288Z,71.94
2023-01-28T12:23:54.173Z,71.59
2023-01-28T12:24:54.111Z,71.59
2023-01-28T12:25:54.081Z,71.70
2023-01-28T12:26:53.982Z,71.62
2023-01-28T12:27:53.961Z,72.14
2023-01-28T12:28:54.538Z,72.17
2023-01-28T12:29:53.875Z,72.49
2023-01-28T12:30:53.891Z,72.28
2023-01-28T12:31:53.987Z,72.69
2023-01-28T12:32:53.774Z,72.90
2023-01-28T12:33:53.720Z,72.59
2023-01-28T12:34:53.789Z,73.53
2023-01-28T12:35:53.657Z,72.90
2023-01-28T12:36:53.599Z,72.45
2023-01-28T12:37:53.653Z,72.77
2023-01-28T12:38:53.542Z,72.77
2023-01-28T12:39:53.537Z,72.66
2023-01-28T12:40:53.456Z,72.77
2023-01-28T12:41:53.415Z,72.59
2023-01-28T12:42:53.411Z,72.49
2023-01-28T12:43:53.401Z,72.90
2023-01-28T12:44:53.310Z,72.90
2023-01-28T12:45:53.337Z,73.28
2023-01-28T12:46:53.274Z,73.18
2023-01-28T12:47:53.202Z,73.39
2023-01-28T12:48:53.172Z,74.01
2023-01-28T12:49:53.224Z,72.87
2023-01-28T12:50:53.087Z,72.45
2023-01-28T12:51:53.142Z,72.14